LICJLICC

Guest
Details From LICJ - Palermo Punta Raisi
To LICC - Catania Fontanarossa
Flight Number -
Tags generated
Created
Modified
Stats Distance 103 nm / 190 km
Max Altitude 100 ft / 30 m
Waypoints 3
Social Downloads 0
Likes 0
Share VATSIM

Download

Looking for another format? Having issues loading an existing format? Contact us
Advertisement - Login to hide

Notes

Basic altitude profile: - Ascent Rate: 1000ft/min - Ascent Speed: 100kts - Cruise Altitude: 1500ft - Cruise Speed: 120kts - Descent Rate: 1000ft/min - Descent Speed: 100kts Options: - Use NATs: no - Use PACOTS: no - Use low airways: yes - Use high airways: no

Route

LICJ CTF LICC

ID Type Via Altitude (ft/m) Position (lat/lon) Dist (leg/tot) Name
O LICJ APT - 0 / 0 38.17750 / 13.09720 - / 0 nm Palermo Punta Raisi
CTF VOR - 100 / 30 37.46440 / 15.06230 102 / 102 nm CATANIA
O LICC APT - 0 / 0 37.46680 / 15.06650 0 / 102 nm Catania Fontanarossa

Altitude Profile

Advertisement - Login to hide

LICJ

Details ICAO LICJ (PMO)
Name Palermo Punta Raisi
Region Italy
Timezone Europe/Rome (UTC+2.0)
Stats Elevation 64 ft / 20 m (AMSL)
Location 38.177500° 13.097200°
Runways 2
Magnetic Variation 3.106° E

METAR

LICJ 190320Z 17003KT CAVOK 21/15 Q1014

Decode

TAF

TAF LICJ 182300Z 1900/1924 VRB05KT CAVOK BECMG 1908/1910 04013KT BECMG 1917/1919 VRB04KT

Decode

Departure Runways

ID Width Length Bearing (true/mag) Surface Threshold Overrun Markings Lighting
02 148 ft / 45 m 6,808 ft / 2,075 m 23.82° / 20.72° ASPHALT 0 ft / 0 m 0 ft / 0 m APP CENTERLINE EDGE THRESHOLD MALSF
07 197 ft / 60 m 10,904 ft / 3,324 m 66.85° / 63.74° ASPHALT 404 ft / 123 m 0 ft / 0 m PREC-APP CENTERLINE EDGE THRESHOLD MALSF
20 148 ft / 45 m 6,808 ft / 2,075 m 203.83° / 200.72° ASPHALT 0 ft / 0 m 0 ft / 0 m APP CENTERLINE EDGE THRESHOLD MALSF
25 197 ft / 60 m 10,904 ft / 3,324 m 246.87° / 243.76° ASPHALT 666 ft / 203 m 322 ft / 98 m PREC-APP CENTERLINE EDGE THRESHOLD MALSF

LICC

Details ICAO LICC (CTA)
Name Catania Fontanarossa
Region Italy
Timezone Europe/Rome (UTC+2.0)
Stats Elevation 39 ft / 12 m (AMSL)
Location 37.466800° 15.066500°
Runways 1
Magnetic Variation 3.369° E

METAR

LICC 190320Z 19003KT CAVOK 19/16 Q1014

Decode

TAF

TAF LICC 182300Z 1900/1924 VRB05KT 9999 FEW050 BECMG 1908/1910 08012KT BECMG 1917/1919 VRB04KT

Decode

Destination Runways

ID Width Length Bearing (true/mag) Surface Threshold Overrun Markings Lighting
08 148 ft / 45 m 8,000 ft / 2,438 m 83.94° / 80.57° ASPHALT 0 ft / 0 m 0 ft / 0 m APP CENTERLINE EDGE THRESHOLD MALSF
26 148 ft / 45 m 8,000 ft / 2,438 m 263.96° / 260.59° ASPHALT 0 ft / 0 m 0 ft / 0 m APP CENTERLINE EDGE THRESHOLD MALSF

Approach Navaids

Runway Type Ident Frequency Range Bearing (true/mag) Slope Elevation
08 GS CTN 109.90 MHz 10 nm / 19 km 83.95° / 80.58 ° 3.00° 39 ft / 12 m (AMSL)
08 DME CTN 109.90 MHz 18 nm / 33 km - - 45 ft / 14 m (AMSL)
08 LOC-ILS CTN 109.90 MHz 18 nm / 33 km 83.95° / 80.58 ° - 39 ft / 12 m (AMSL)

Popular Alternatives